Time;durP1;ratioP1;P1;durP2;ratioP2;P2;SDS_P1;SDS_P2;PMS_P1;PMS_P2;Temp;Humidity;BMP_temperature;BMP_pressure;BME280_temperature;BME280_humidity;BME280_pressure;Samples;Min_cycle;Max_cycle;Signal;HPM_P1;HPM_P2
2023/03/06 00:01:15;;;;;;;19.53;12.07;;;;;;;5.88;65.52;96304.41;5067649;28;20191;-74
2023/03/06 00:03:42;;;;;;;15.80;9.30;;;;;;;5.88;65.08;96293.28;5064765;28;20196;-73
2023/03/06 00:06:09;;;;;;;13.17;10.00;;;;;;;5.89;65.57;96280.41;5049519;28;20193;-74
2023/03/06 00:08:37;;;;;;;15.30;10.03;;;;;;;5.87;65.66;96289.06;5067034;28;20616;-73
2023/03/06 00:11:04;;;;;;;25.87;16.47;;;;;;;5.83;66.12;96288.34;5049152;28;20192;-74
2023/03/06 00:13:33;;;;;;;17.37;11.10;;;;;;;5.82;65.75;96294.34;5049576;28;20236;-73
2023/03/06 00:16:00;;;;;;;18.00;10.70;;;;;;;5.70;66.38;96299.97;5049290;28;20182;-74
2023/03/06 00:18:27;;;;;;;18.03;10.37;;;;;;;5.73;66.62;96279.28;5067205;28;20207;-74
2023/03/06 00:20:54;;;;;;;16.70;10.07;;;;;;;5.98;65.15;96295.44;5066747;28;20223;-73
2023/03/06 00:23:21;;;;;;;16.17;10.30;;;;;;;5.95;65.61;96299.88;5048965;28;20192;-74
2023/03/06 00:25:49;;;;;;;17.23;11.03;;;;;;;5.98;65.85;96295.44;5066818;28;20681;-74
2023/03/06 00:28:16;;;;;;;19.47;12.17;;;;;;;5.83;66.98;96297.75;5048802;28;20232;-73
2023/03/06 00:30:45;;;;;;;25.47;13.37;;;;;;;5.79;66.91;96286.75;5067119;28;20197;-73
2023/03/06 00:33:12;;;;;;;28.53;15.30;;;;;;;5.75;67.48;96278.34;5066714;28;20192;-73
2023/03/06 00:35:40;;;;;;;28.87;14.77;;;;;;;5.81;67.89;96308.09;5049211;28;20185;-72
2023/03/06 00:38:09;;;;;;;22.03;12.97;;;;;;;5.70;67.82;96285.41;5048735;28;20178;-73
2023/03/06 00:40:36;;;;;;;23.80;14.27;;;;;;;5.76;68.29;96281.75;5032294;28;20198;-72
2023/03/06 00:43:02;;;;;;;26.53;14.60;;;;;;;5.45;69.71;96301.78;5066695;28;20669;-73
2023/03/06 00:45:29;;;;;;;23.67;13.00;;;;;;;5.37;69.44;96293.53;5048853;28;20626;-73
2023/03/06 00:47:57;;;;;;;22.40;13.27;;;;;;;5.33;69.31;96281.72;5048678;28;20733;-73
2023/03/06 00:50:24;;;;;;;22.47;12.70;;;;;;;5.37;69.73;96293.53;5048407;28;20252;-71
2023/03/06 00:52:51;;;;;;;21.60;13.13;;;;;;;5.28;70.66;96299.84;5048859;28;20194;-73
2023/03/06 00:55:18;;;;;;;26.77;14.67;;;;;;;4.92;70.81;96266.09;5048446;28;20182;-73
2023/03/06 00:57:45;;;;;;;22.13;13.63;;;;;;;5.09;71.09;96296.28;5066507;28;20206;-72
2023/03/06 01:00:13;;;;;;;25.47;14.10;;;;;;;5.18;70.62;96287.41;5048344;28;20212;-72
2023/03/06 01:02:40;;;;;;;25.57;12.60;;;;;;;5.07;71.00;96299.81;5066306;28;20663;-73
2023/03/06 01:05:08;;;;;;;25.07;13.53;;;;;;;4.95;70.56;96288.25;5066332;28;20197;-72
2023/03/06 01:07:36;;;;;;;24.73;13.87;;;;;;;4.76;72.04;96298.31;5066087;28;20224;-73
2023/03/06 01:10:04;;;;;;;23.67;13.03;;;;;;;4.71;72.09;96300.22;5048592;28;20263;-73
2023/03/06 01:12:31;;;;;;;20.90;11.27;;;;;;;4.78;71.97;96306.78;5066170;28;20753;-73
2023/03/06 01:14:58;;;;;;;21.77;12.77;;;;;;;4.86;72.25;96309.09;5048352;28;20199;-74
2023/03/06 01:17:29;;;;;;;15.30;10.67;;;;;;;4.89;71.10;96319.25;5066407;28;20202;-74
2023/03/06 01:19:56;;;;;;;17.83;10.70;;;;;;;4.91;71.56;96318.31;5048160;28;20279;-72
2023/03/06 01:22:23;;;;;;;15.80;10.70;;;;;;;5.12;70.93;96326.13;5066656;28;20232;-73
2023/03/06 01:24:52;;;;;;;17.53;10.73;;;;;;;5.13;70.85;96322.69;5048342;28;20191;-74
2023/03/06 01:27:20;;;;;;;18.63;11.53;;;;;;;5.22;70.85;96333.44;5031967;28;20230;-73
2023/03/06 01:29:47;;;;;;;17.40;11.37;;;;;;;5.13;71.55;96322.69;5066182;28;20218;-72
2023/03/06 01:32:14;;;;;;;21.83;13.13;;;;;;;4.93;71.76;96315.69;5048383;28;20184;-72
2023/03/06 01:34:41;;;;;;;17.37;11.60;;;;;;;5.10;71.20;96305.66;5066071;28;20187;-73
2023/03/06 01:37:08;;;;;;;16.87;9.90;;;;;;;5.25;70.74;96323.06;5048281;28;20188;-72
2023/03/06 01:40:00;;;;;;;16.53;10.47;;;;;;;5.21;71.29;96334.34;5048025;28;20244;-75
2023/03/06 01:42:28;;;;;;;14.97;10.20;;;;;;;5.28;71.02;96327.25;5052258;28;20669;-72
2023/03/06 01:45:00;;;;;;;19.57;11.87;;;;;;;5.07;71.20;96317.78;5070126;28;20621;-72
2023/03/06 01:47:29;;;;;;;18.10;11.63;;;;;;;5.12;70.89;96321.84;5052443;28;20710;-72
2023/03/06 01:50:00;;;;;;;17.83;11.87;;;;;;;5.13;70.58;96312.41;5035617;28;20219;-73
2023/03/06 01:52:37;;;;;;;20.47;11.83;;;;;;;5.27;70.22;96323.84;5069805;28;20204;-73
2023/03/06 01:55:10;;;;;;;21.27;12.70;;;;;;;5.40;70.62;96326.81;5051786;28;20200;-73
2023/03/06 01:57:43;;;;;;;18.40;11.27;;;;;;;5.18;70.64;96331.88;5035450;28;20197;-73
2023/03/06 02:00:17;;;;;;;23.83;13.17;;;;;;;5.17;71.36;96313.97;5051723;28;20189;-74
2023/03/06 02:02:51;;;;;;;22.80;12.17;;;;;;;4.55;71.84;96314.47;5051620;28;20252;-72
2023/03/06 02:05:18;;;;;;;18.47;12.07;;;;;;;4.43;72.75;96319.97;5069402;28;20185;-73
2023/03/06 02:07:46;;;;;;;17.33;11.23;;;;;;;4.39;72.59;96322.72;5069497;28;20282;-73
2023/03/06 02:10:15;;;;;;;19.53;11.37;;;;;;;4.48;72.20;96322.38;5051435;28;20703;-73
2023/03/06 02:12:44;;;;;;;18.90;10.33;;;;;;;4.40;71.73;96321.81;5051609;28;20213;-71
2023/03/06 02:15:14;;;;;;;15.73;10.73;;;;;;;4.58;70.95;96329.72;5051689;28;20193;-75
2023/03/06 02:17:44;;;;;;;18.10;10.33;;;;;;;4.61;71.58;96337.31;5069470;28;20676;-74
2023/03/06 02:20:21;;;;;;;17.60;10.83;;;;;;;4.73;72.24;96338.63;5051069;28;20234;-73
2023/03/06 02:23:05;;;;;;;19.23;11.20;;;;;;;4.86;70.80;96335.56;5069235;28;20194;-73
2023/03/06 02:25:47;;;;;;;18.33;10.90;;;;;;;4.89;71.73;96334.63;5051408;28;20185;-74
2023/03/06 02:28:20;;;;;;;16.53;10.37;;;;;;;4.68;71.36;96337.94;5051379;28;20247;-73
2023/03/06 02:30:50;;;;;;;15.97;10.43;;;;;;;4.77;71.63;96353.00;5069177;28;20215;-73
2023/03/06 02:33:26;;;;;;;18.33;11.53;;;;;;;4.82;70.95;96349.38;5034384;28;20187;-73
2023/03/06 02:36:05;;;;;;;18.10;11.73;;;;;;;4.86;71.01;96350.16;5069082;28;20222;-72
2023/03/06 02:38:44;;;;;;;18.10;10.87;;;;;;;4.35;71.06;96304.00;5051065;28;20191;-74
2023/03/06 02:41:11;;;;;;;21.13;11.77;;;;;;;4.51;71.63;96335.97;5068936;28;20251;-73
2023/03/06 02:43:41;;;;;;;18.00;10.73;;;;;;;4.42;72.59;96346.50;5050707;28;20747;-73
2023/03/06 02:46:08;;;;;;;17.40;11.70;;;;;;;4.65;72.69;96353.44;5068793;28;20181;-73
2023/03/06 02:48:35;;;;;;;16.43;11.03;;;;;;;4.66;71.65;96353.38;5050730;28;20206;-72
2023/03/06 02:51:02;;;;;;;19.10;11.67;;;;;;;4.72;72.14;96355.72;5068584;28;20225;-72
2023/03/06 02:53:29;;;;;;;20.43;12.00;;;;;;;4.67;71.83;96342.25;5050785;28;20209;-73
2023/03/06 02:55:58;;;;;;;17.47;11.60;;;;;;;4.60;72.29;96356.16;5050947;28;20192;-73
2023/03/06 02:58:25;;;;;;;19.70;12.57;;;;;;;4.49;72.64;96365.09;5068855;28;20685;-73
2023/03/06 03:00:52;;;;;;;21.03;13.30;;;;;;;4.42;73.21;96354.19;5033899;28;20657;-75
2023/03/06 03:03:20;;;;;;;22.93;13.87;;;;;;;4.27;73.10;96359.81;5050526;28;20248;-74
2023/03/06 03:05:47;;;;;;;18.50;11.63;;;;;;;4.38;72.76;96362.88;5068386;28;20194;-74
2023/03/06 03:08:21;;;;;;;19.10;11.90;;;;;;;4.28;73.42;96358.94;5050453;28;20194;-73
2023/03/06 03:10:51;;;;;;;20.53;10.70;;;;;;;4.30;72.49;96364.00;5050576;28;20220;-72
2023/03/06 03:13:19;;;;;;;21.03;12.13;;;;;;;4.25;72.81;96366.72;5050233;28;20304;-74
2023/03/06 03:16:02;;;;;;;19.87;11.37;;;;;;;4.12;73.37;96363.69;5050506;28;20574;-72
2023/03/06 03:18:29;;;;;;;18.60;11.30;;;;;;;3.73;73.10;96294.97;5050003;28;20372;-75
2023/03/06 03:20:57;;;;;;;21.80;12.20;;;;;;;4.13;73.71;96369.66;5050064;28;20254;-74
2023/03/06 03:23:25;;;;;;;22.50;12.33;;;;;;;4.01;73.62;96376.00;5049880;28;20212;-75
2023/03/06 03:26:05;;;;;;;20.53;12.50;;;;;;;3.84;74.31;96379.97;5050118;28;20649;-74
2023/03/06 03:28:33;;;;;;;19.23;11.63;;;;;;;3.92;74.24;96370.31;5035563;28;20222;-75
2023/03/06 03:31:06;;;;;;;23.20;13.70;;;;;;;3.85;74.86;96381.66;5030041;28;20276;-75
2023/03/06 03:33:34;;;;;;;19.53;12.20;;;;;;;3.91;74.17;96382.31;5013440;28;20203;-73
2023/03/06 03:36:03;;;;;;;18.53;10.90;;;;;;;3.68;74.49;96371.91;5030162;28;20591;-73
2023/03/06 03:38:34;;;;;;;17.80;11.17;;;;;;;3.73;74.85;96382.03;5014033;28;20186;-76
2023/03/06 03:41:01;;;;;;;16.93;10.93;;;;;;;3.66;74.61;96383.06;5047943;28;20198;-75
2023/03/06 03:43:30;;;;;;;16.43;10.27;;;;;;;3.40;75.41;96380.44;5029996;28;20189;-75
2023/03/06 03:45:58;;;;;;;17.83;10.97;;;;;;;3.55;75.40;96391.06;5030310;28;20201;-76
2023/03/06 03:48:25;;;;;;;19.90;11.83;;;;;;;3.59;75.07;96387.53;5013384;28;20190;-75
2023/03/06 03:50:52;;;;;;;23.53;12.13;;;;;;;3.58;74.71;96378.19;5029823;28;20708;-74
2023/03/06 03:53:22;;;;;;;23.43;12.30;;;;;;;3.76;73.86;96403.25;5029728;28;20186;-76
2023/03/06 03:55:49;;;;;;;24.63;12.37;;;;;;;3.73;74.62;96399.94;5029606;28;20182;-75
2023/03/06 03:58:19;;;;;;;19.13;12.30;;;;;;;3.87;73.24;96401.22;5030389;28;20248;-75
2023/03/06 04:00:48;;;;;;;20.37;11.93;;;;;;;3.72;73.83;96399.09;5029644;28;20185;-75
2023/03/06 04:03:15;;;;;;;19.23;12.10;;;;;;;3.67;74.53;96390.69;5047223;28;20186;-71
2023/03/06 04:05:44;;;;;;;19.00;11.67;;;;;;;3.63;74.08;96383.16;5029658;28;20263;-76
2023/03/06 04:08:14;;;;;;;19.70;13.00;;;;;;;3.78;74.18;96403.19;5030170;28;20193;-75
2023/03/06 04:10:44;;;;;;;24.93;13.07;;;;;;;3.62;74.02;96404.53;5029476;28;20222;-76
2023/03/06 04:13:13;;;;;;;20.87;11.83;;;;;;;3.53;74.75;96394.53;5013413;28;20263;-75
2023/03/06 04:15:43;;;;;;;21.80;12.87;;;;;;;3.46;75.28;96395.63;5034765;28;20193;-75
2023/03/06 04:18:11;;;;;;;23.37;12.37;;;;;;;3.62;74.55;96400.25;5032520;28;20192;-76
2023/03/06 04:20:38;;;;;;;19.40;11.13;;;;;;;3.68;74.03;96394.94;5049087;28;20615;-75
2023/03/06 04:23:05;;;;;;;19.97;12.63;;;;;;;3.50;74.27;96392.94;5032193;28;20189;-75
2023/03/06 04:25:32;;;;;;;19.60;11.67;;;;;;;3.32;74.83;96392.59;5032147;28;20633;-75
2023/03/06 04:28:03;;;;;;;15.03;10.47;;;;;;;3.37;75.62;96398.41;5049485;28;20193;-75
2023/03/06 04:30:31;;;;;;;18.83;11.10;;;;;;;3.55;75.20;96408.97;5048720;28;20212;-72
2023/03/06 04:32:59;;;;;;;19.80;12.27;;;;;;;3.66;75.28;96426.59;5054224;28;20225;-73
2023/03/06 04:35:26;;;;;;;25.83;12.57;;;;;;;3.66;75.13;96418.91;5032014;28;20557;-75
2023/03/06 04:37:59;;;;;;;31.47;17.53;;;;;;;3.66;75.68;96424.88;5048869;28;20188;-75
2023/03/06 04:40:31;;;;;;;29.37;17.57;;;;;;;3.69;74.96;96429.91;5048769;28;20688;-73
2023/03/06 04:42:59;;;;;;;26.40;15.33;;;;;;;3.58;74.72;96434.50;5048399;28;20258;-72
2023/03/06 04:45:29;;;;;;;21.67;14.07;;;;;;;3.50;74.59;96435.59;5066622;28;20631;-73
2023/03/06 04:47:56;;;;;;;21.87;12.97;;;;;;;3.35;75.05;96436.00;5046902;28;20231;-72
2023/03/06 04:50:24;;;;;;;21.57;12.50;;;;;;;3.01;75.21;96447.13;5028965;28;20213;-72
2023/03/06 04:52:51;;;;;;;23.90;14.27;;;;;;;2.70;77.08;96436.00;5028662;28;20197;-74
2023/03/06 04:55:18;;;;;;;20.00;12.90;;;;;;;2.81;77.56;96449.34;5046705;28;20196;-72
2023/03/06 04:57:46;;;;;;;24.80;14.20;;;;;;;2.63;77.24;96457.50;5046486;28;20197;-72
2023/03/06 05:00:19;;;;;;;23.17;12.43;;;;;;;2.53;78.96;96462.84;5054611;28;20581;-74
2023/03/06 05:02:47;;;;;;;24.23;12.40;;;;;;;2.54;78.43;96465.38;5066371;28;20189;-75
2023/03/06 05:05:15;;;;;;;24.37;14.23;;;;;;;2.63;78.94;96456.63;5065562;28;20300;-75
2023/03/06 05:07:43;;;;;;;30.70;14.53;;;;;;;2.46;79.22;96457.88;5064921;28;20189;-77
2023/03/06 05:10:13;;;;;;;23.63;13.37;;;;;;;2.55;80.41;96469.63;5066838;28;20212;-76
2023/03/06 05:12:41;;;;;;;25.90;14.17;;;;;;;2.64;80.16;96461.72;5064348;28;20203;-76
2023/03/06 05:15:10;;;;;;;20.70;12.93;;;;;;;2.70;80.26;96464.13;5087000;28;20233;-76
2023/03/06 05:17:37;;;;;;;21.03;12.83;;;;;;;2.85;79.35;96450.97;5090775;28;20652;-73
2023/03/06 05:20:09;;;;;;;22.07;11.60;;;;;;;3.07;78.87;96467.44;5084490;28;20315;-76
2023/03/06 05:22:36;;;;;;;18.83;11.57;;;;;;;3.00;78.32;96478.72;5070949;28;20226;-76
2023/03/06 05:25:04;;;;;;;18.63;12.17;;;;;;;2.96;77.91;96478.81;5070295;28;20576;-74
2023/03/06 05:27:32;;;;;;;22.63;12.37;;;;;;;2.92;78.59;96477.22;5070075;28;20627;-73
2023/03/06 05:30:00;;;;;;;22.80;12.03;;;;;;;2.90;78.61;96478.97;5035485;28;20711;-73
2023/03/06 05:32:29;;;;;;;22.57;13.00;;;;;;;2.96;78.12;96482.22;5052251;28;20193;-76
2023/03/06 05:34:57;;;;;;;19.43;12.63;;;;;;;2.95;77.79;96483.09;5051806;28;20197;-72
2023/03/06 05:37:24;;;;;;;22.83;13.20;;;;;;;2.92;77.66;96478.06;5052194;28;20193;-74
2023/03/06 05:39:51;;;;;;;28.57;13.20;;;;;;;3.21;77.00;96497.78;5069896;28;20189;-73
2023/03/06 05:42:18;;;;;;;26.93;16.60;;;;;;;3.40;76.37;96493.03;5069778;28;20196;-74
2023/03/06 05:44:45;;;;;;;29.23;16.37;;;;;;;3.67;75.16;96487.97;5069495;28;20173;-73
2023/03/06 05:47:12;;;;;;;28.83;16.70;;;;;;;3.85;75.01;96510.50;5069783;28;20232;-72
2023/03/06 05:49:40;;;;;;;32.07;16.87;;;;;;;4.04;74.85;96498.03;5034788;28;20212;-73
2023/03/06 05:52:07;;;;;;;31.77;16.13;;;;;;;4.13;74.14;96516.53;5069572;28;20280;-72
2023/03/06 05:54:36;;;;;;;30.10;18.17;;;;;;;4.07;74.45;96506.47;5051255;28;20185;-72
2023/03/06 05:57:04;;;;;;;30.40;16.50;;;;;;;4.09;74.18;96514.09;5034877;28;20189;-74
2023/03/06 05:59:31;;;;;;;27.40;16.77;;;;;;;4.18;73.83;96523.25;5069315;28;20583;-73
2023/03/06 06:01:59;;;;;;;26.47;16.47;;;;;;;4.17;73.62;96508.75;5069092;28;20710;-73
2023/03/06 06:04:27;;;;;;;26.30;15.53;;;;;;;4.30;73.59;96510.09;5069315;28;20185;-73
2023/03/06 06:06:56;;;;;;;23.80;15.10;;;;;;;4.24;72.91;96508.56;5069340;28;20598;-74
2023/03/06 06:09:24;;;;;;;24.93;15.37;;;;;;;4.33;73.36;96518.50;5051365;28;20281;-74
2023/03/06 06:12:02;;;;;;;27.70;16.07;;;;;;;4.39;73.34;96532.88;5034531;28;20257;-72
2023/03/06 06:14:33;;;;;;;31.67;15.33;;;;;;;4.48;73.78;96537.72;5068970;28;20280;-73
2023/03/06 06:17:01;;;;;;;25.17;15.77;;;;;;;4.65;72.64;96500.44;5069220;28;20197;-75
2023/03/06 06:19:29;;;;;;;26.63;15.10;;;;;;;4.72;72.65;96537.81;5034560;28;20688;-74
2023/03/06 06:21:56;;;;;;;23.87;14.40;;;;;;;4.73;73.00;96539.50;5051348;28;20193;-74
2023/03/06 06:24:24;;;;;;;25.67;15.67;;;;;;;4.78;72.80;96550.44;5050780;28;20255;-73
2023/03/06 06:26:54;;;;;;;25.57;16.13;;;;;;;4.54;73.67;96527.28;5050238;28;20279;-74
2023/03/06 06:29:22;;;;;;;21.83;14.63;;;;;;;4.50;73.05;96549.63;5050884;28;20193;-72
2023/03/06 06:31:51;;;;;;;25.57;15.50;;;;;;;4.57;73.77;96563.09;5068514;28;20221;-73
2023/03/06 06:34:18;;;;;;;24.60;15.47;;;;;;;4.79;73.63;96564.97;5068824;28;20603;-73
2023/03/06 06:36:46;;;;;;;25.60;16.87;;;;;;;4.98;74.01;96565.22;5050621;28;20238;-72
2023/03/06 06:39:16;;;;;;;27.37;16.83;;;;;;;5.21;72.65;96569.63;5068550;28;20624;-72
2023/03/06 06:41:44;;;;;;;25.67;14.27;;;;;;;5.25;71.38;96568.63;5068263;28;20320;-73
2023/03/06 06:44:28;;;;;;;22.17;13.30;;;;;;;5.44;71.51;96562.03;5050405;28;20198;-73
2023/03/06 06:46:55;;;;;;;18.67;12.10;;;;;;;5.58;70.70;96572.66;5068739;28;20190;-76
2023/03/06 06:49:43;;;;;;;20.50;13.37;;;;;;;5.74;70.11;96559.25;5068054;28;20661;-76
2023/03/06 06:52:10;;;;;;;19.40;12.50;;;;;;;5.94;69.63;96563.69;5050397;28;20198;-73
2023/03/06 06:54:37;;;;;;;19.70;13.40;;;;;;;5.90;68.40;96577.56;5068381;28;20186;-75
2023/03/06 06:57:04;;;;;;;22.37;13.37;;;;;;;6.10;69.78;96584.56;5068592;28;20252;-76
2023/03/06 06:59:35;;;;;;;21.43;13.07;;;;;;;6.10;67.91;96572.53;5050518;28;20230;-75
2023/03/06 07:02:04;;;;;;;24.27;14.03;;;;;;;6.47;66.98;96584.94;5050514;28;20268;-73
2023/03/06 07:04:31;;;;;;;25.20;14.53;;;;;;;6.78;66.27;96587.19;5049684;28;20197;-76
2023/03/06 07:06:59;;;;;;;24.63;14.00;;;;;;;6.81;65.85;96582.75;5049476;28;20218;-73
2023/03/06 07:09:30;;;;;;;30.10;16.13;;;;;;;6.84;65.22;96566.34;5049843;28;20273;-74
2023/03/06 07:12:00;;;;;;;22.07;12.90;;;;;;;7.04;63.29;96594.72;5032701;28;20242;-72
2023/03/06 07:14:28;;;;;;;23.67;14.43;;;;;;;7.17;63.22;96590.78;5067868;28;20231;-72
2023/03/06 07:16:55;;;;;;;22.10;14.47;;;;;;;7.23;63.17;96593.13;5067674;28;20189;-73
2023/03/06 07:19:22;;;;;;;23.37;14.70;;;;;;;7.36;63.42;96587.41;5067400;28;20185;-76
2023/03/06 07:21:49;;;;;;;23.60;14.90;;;;;;;7.48;62.52;96583.47;5067788;28;20185;-75
2023/03/06 07:24:16;;;;;;;30.90;14.70;;;;;;;7.68;61.30;96592.97;5049473;28;20292;-75
2023/03/06 07:26:48;;;;;;;24.90;14.70;;;;;;;7.69;61.06;96568.88;5033509;28;20193;-75
2023/03/06 07:29:15;;;;;;;22.17;13.87;;;;;;;7.78;60.12;96592.53;5049290;28;20197;-75
2023/03/06 07:31:43;;;;;;;22.67;14.23;;;;;;;7.81;58.12;96573.53;5067319;28;20312;-74
2023/03/06 07:34:14;;;;;;;19.50;12.30;;;;;;;7.99;56.70;96589.06;5067267;28;20710;-74
2023/03/06 07:36:41;;;;;;;18.33;11.20;;;;;;;8.21;56.16;96587.22;5067262;28;20272;-74
2023/03/06 07:39:08;;;;;;;17.17;11.47;;;;;;;8.14;56.36;96588.38;5048224;28;20220;-76
2023/03/06 07:41:36;;;;;;;15.53;10.80;;;;;;;8.07;55.15;96589.56;5066729;28;20250;-77
2023/03/06 07:44:03;;;;;;;18.73;11.73;;;;;;;8.26;55.46;96587.06;5066875;28;20675;-72
2023/03/06 07:46:30;;;;;;;18.40;12.33;;;;;;;8.08;55.84;96580.91;5066842;28;20267;-76
2023/03/06 07:48:57;;;;;;;23.17;13.20;;;;;;;8.32;55.58;96579.03;5066959;28;20234;-76
2023/03/06 07:51:24;;;;;;;32.33;13.73;;;;;;;8.50;55.96;96591.13;5032306;28;20275;-77
2023/03/06 07:53:51;;;;;;;18.40;11.67;;;;;;;8.58;54.49;96596.78;5015830;28;20809;-73
2023/03/06 07:56:18;;;;;;;28.90;12.23;;;;;;;8.68;53.26;96599.75;5066903;28;20197;-75
2023/03/06 07:58:46;;;;;;;18.70;11.43;;;;;;;8.87;52.63;96595.44;5067342;28;20341;-73
2023/03/06 08:01:16;;;;;;;25.53;13.93;;;;;;;8.89;52.38;96604.78;5067031;28;20212;-72
2023/03/06 08:03:43;;;;;;;27.80;13.60;;;;;;;9.05;51.99;96593.75;5048670;28;20221;-71
2023/03/06 08:06:16;;;;;;;16.70;11.20;;;;;;;9.07;51.79;96602.28;5048293;28;20205;-74
2023/03/06 08:08:44;;;;;;;23.77;12.53;;;;;;;8.81;52.15;96611.22;5048522;28;20561;-73
2023/03/06 08:11:13;;;;;;;20.90;11.37;;;;;;;8.92;52.04;96594.31;5066366;28;20217;-74
2023/03/06 08:13:40;;;;;;;24.83;11.97;;;;;;;9.19;51.96;96604.28;5066174;28;20204;-75
2023/03/06 08:16:08;;;;;;;19.43;11.33;;;;;;;9.35;51.54;96611.22;5066291;28;20242;-73
2023/03/06 08:18:38;;;;;;;20.07;11.03;;;;;;;9.23;51.18;96593.75;5048199;28;20271;-76
2023/03/06 08:21:10;;;;;;;18.57;10.57;;;;;;;9.36;50.64;96604.28;5065834;28;20219;-74
2023/03/06 08:23:38;;;;;;;23.97;12.97;;;;;;;9.35;49.93;96602.63;5047644;28;20285;-74
2023/03/06 08:26:10;;;;;;;20.63;13.30;;;;;;;9.36;51.43;96609.47;5031498;28;20284;-73
2023/03/06 08:28:39;;;;;;;23.33;13.70;;;;;;;9.41;52.92;96602.34;5048122;28;20273;-76
2023/03/06 08:31:14;;;;;;;19.37;11.40;;;;;;;9.56;52.04;96606.78;5048330;28;20209;-76
2023/03/06 08:33:41;;;;;;;22.40;12.57;;;;;;;9.53;52.24;96605.19;5065891;28;20192;-77
2023/03/06 08:36:09;;;;;;;23.30;12.10;;;;;;;9.33;51.62;96600.13;5048325;28;20598;-75
2023/03/06 08:38:36;;;;;;;19.97;11.03;;;;;;;9.39;51.03;96596.41;5066015;28;20185;-74
2023/03/06 08:41:03;;;;;;;21.73;11.73;;;;;;;9.46;51.66;96601.19;5066032;28;20675;-73
2023/03/06 08:43:30;;;;;;;14.80;10.10;;;;;;;9.60;49.75;96597.97;5066014;28;20186;-73
2023/03/06 08:45:58;;;;;;;22.30;11.33;;;;;;;9.82;49.41;96607.16;5065805;28;20185;-74
2023/03/06 08:48:25;;;;;;;18.03;11.83;;;;;;;9.74;48.02;96617.06;5065482;28;20197;-73
2023/03/06 08:50:52;;;;;;;16.70;10.23;;;;;;;9.48;48.82;96614.88;5065305;28;20307;-72
2023/03/06 08:53:20;;;;;;;18.27;11.47;;;;;;;9.75;48.74;96605.78;5047469;28;20691;-76
2023/03/06 08:55:56;;;;;;;21.07;11.53;;;;;;;9.76;48.39;96611.81;5049187;28;20252;-76
2023/03/06 08:58:23;;;;;;;20.10;11.07;;;;;;;10.08;49.18;96597.25;5065750;28;20196;-73
2023/03/06 09:00:50;;;;;;;14.83;10.20;;;;;;;9.63;47.38;96600.38;5065593;28;20611;-73
2023/03/06 09:03:18;;;;;;;17.67;9.97;;;;;;;9.87;46.46;96612.09;5065215;28;20285;-73
2023/03/06 09:05:48;;;;;;;17.10;9.63;;;;;;;9.91;46.45;96605.88;5030710;28;20229;-73
2023/03/06 09:08:17;;;;;;;18.47;9.73;;;;;;;10.06;45.89;96599.06;5047350;28;20197;-74
2023/03/06 09:10:46;;;;;;;16.70;10.00;;;;;;;10.31;45.59;96596.94;5063901;28;20800;-73
2023/03/06 09:13:13;;;;;;;16.93;10.60;;;;;;;10.09;45.71;96578.22;5065501;28;20192;-72
2023/03/06 09:15:41;;;;;;;13.30;8.83;;;;;;;10.00;46.22;96596.78;5065154;28;20386;-74
2023/03/06 09:18:12;;;;;;;16.43;10.40;;;;;;;9.88;46.43;96587.91;5030781;28;20213;-73
2023/03/06 09:20:39;;;;;;;17.87;10.43;;;;;;;9.65;46.78;96558.03;5046757;28;20337;-73
2023/03/06 09:23:07;;;;;;;15.23;9.17;;;;;;;9.81;46.48;96592.56;5046616;28;20189;-73
2023/03/06 09:25:36;;;;;;;13.50;9.23;;;;;;;9.58;46.92;96595.44;5046989;28;20272;-73
2023/03/06 09:28:04;;;;;;;18.27;11.53;;;;;;;9.45;47.74;96586.63;5047457;28;20667;-76
2023/03/06 09:30:39;;;;;;;15.43;9.37;;;;;;;9.54;47.17;96586.16;5030627;28;20203;-74
2023/03/06 09:33:07;;;;;;;16.30;10.13;;;;;;;9.93;47.11;96592.88;5065431;28;20566;-76
2023/03/06 09:35:34;;;;;;;26.73;10.70;;;;;;;10.10;47.40;96587.69;5065512;28;20185;-74
2023/03/06 09:38:02;;;;;;;18.33;10.83;;;;;;;10.34;46.63;96587.28;5030698;28;20239;-73
2023/03/06 09:41:00;;;;;;;19.37;11.00;;;;;;;10.27;46.61;96579.91;5046856;28;20696;-76
2023/03/06 09:43:34;;;;;;;21.33;10.03;;;;;;;10.72;46.58;96593.00;5047239;28;20644;-77
2023/03/06 09:46:29;;;;;;;15.63;10.33;;;;;;;10.74;46.06;96585.19;5030680;28;20192;-72
2023/03/06 09:49:09;;;;;;;12.70;8.50;;;;;;;10.57;45.37;96599.03;5065086;28;20189;-73
2023/03/06 09:52:14;;;;;;;15.97;9.13;;;;;;;10.61;45.96;96585.81;5046770;28;20240;-76
2023/03/06 09:54:44;;;;;;;17.17;10.23;;;;;;;10.56;46.31;96592.16;5006966;28;20295;-74
2023/03/06 09:57:18;;;;;;;14.30;8.90;;;;;;;10.80;45.99;96590.84;5064585;28;20560;-74
2023/03/06 09:59:49;;;;;;;13.87;9.90;;;;;;;10.86;46.47;96587.94;5065046;28;20217;-73
2023/03/06 10:02:52;;;;;;;15.17;9.20;;;;;;;10.65;46.67;96589.09;5049405;28;20193;-73
2023/03/06 10:05:34;;;;;;;15.70;10.93;;;;;;;10.82;46.84;96581.25;5046172;28;20224;-73
2023/03/06 10:08:29;;;;;;;15.23;9.93;;;;;;;11.12;46.03;96589.94;5050716;28;20199;-73
2023/03/06 10:11:02;;;;;;;16.00;9.30;;;;;;;11.18;44.80;96593.94;5051050;28;20209;-74
2023/03/06 10:13:49;;;;;;;15.07;9.47;;;;;;;11.27;45.06;96581.31;5068491;28;20220;-73
2023/03/06 10:16:25;;;;;;;16.33;10.50;;;;;;;11.24;45.41;96581.50;5068693;28;20247;-73
2023/03/06 10:18:54;;;;;;;14.67;9.77;;;;;;;11.48;44.62;96573.28;5068360;28;20301;-74
2023/03/06 10:21:45;;;;;;;15.60;9.10;;;;;;;11.33;44.63;96577.56;5050333;28;20262;-73
2023/03/06 10:24:33;;;;;;;16.63;8.77;;;;;;;10.95;44.86;96573.63;5067184;28;20273;-76
2023/03/06 10:27:30;;;;;;;15.57;9.40;;;;;;;10.79;45.44;96572.81;5068112;28;20644;-75
2023/03/06 10:30:02;;;;;;;14.30;9.23;;;;;;;10.84;45.26;96561.28;5037992;28;20225;-73
2023/03/06 10:32:53;;;;;;;15.93;9.90;;;;;;;11.28;45.24;96556.22;5068973;28;20225;-75
2023/03/06 10:35:28;;;;;;;15.23;9.80;;;;;;;11.44;45.51;96546.66;5049941;28;20232;-74
2023/03/06 10:38:24;;;;;;;15.23;10.03;;;;;;;11.57;44.92;96547.63;5068369;28;20194;-77
2023/03/06 10:41:09;;;;;;;13.83;8.80;;;;;;;11.61;44.81;96545.69;5046329;28;20193;-76
2023/03/06 10:44:00;;;;;;;13.43;8.30;;;;;;;11.86;44.42;96548.56;5049814;28;20616;-74
2023/03/06 10:46:37;;;;;;;15.33;9.10;;;;;;;12.08;43.51;96531.66;5058784;28;20261;-73
2023/03/06 10:49:21;;;;;;;14.70;9.10;;;;;;;11.92;42.82;96535.22;5050139;28;20181;-73
2023/03/06 10:52:20;;;;;;;15.27;9.03;;;;;;;11.73;44.45;96526.84;5049471;28;20233;-72
2023/03/06 10:54:47;;;;;;;13.57;9.43;;;;;;;11.70;44.64;96527.06;5054855;28;20199;-74
2023/03/06 10:57:23;;;;;;;17.83;11.47;;;;;;;11.90;43.79;96526.72;5067893;28;20746;-73
2023/03/06 10:59:55;;;;;;;13.80;9.23;;;;;;;11.95;43.65;96517.72;5067841;28;20198;-73
2023/03/06 11:02:27;;;;;;;16.03;10.17;;;;;;;12.02;43.80;96515.59;5067851;28;20196;-73
2023/03/06 11:04:58;;;;;;;15.53;9.70;;;;;;;11.97;43.58;96499.50;5049826;28;20832;-73
2023/03/06 11:07:32;;;;;;;14.23;8.80;;;;;;;12.08;43.97;96508.28;5032975;28;20230;-73
2023/03/06 11:10:01;;;;;;;19.73;9.30;;;;;;;12.15;43.34;96507.00;5067782;28;20628;-72
2023/03/06 11:12:39;;;;;;;15.93;9.00;;;;;;;11.73;43.98;96503.50;5048433;28;20228;-72
2023/03/06 11:15:17;;;;;;;14.17;8.87;;;;;;;11.64;43.63;96498.84;5032367;28;20246;-74
2023/03/06 11:17:59;;;;;;;15.30;9.30;;;;;;;11.82;43.76;96495.19;5032562;28;20643;-74
2023/03/06 11:20:47;;;;;;;14.10;9.23;;;;;;;11.81;44.40;96493.53;5042904;28;20487;-74
2023/03/06 11:23:36;;;;;;;13.90;9.20;;;;;;;11.48;44.43;96455.66;5027223;28;20198;-74
2023/03/06 11:26:15;;;;;;;14.77;9.60;;;;;;;11.98;43.88;96491.59;5027243;28;20568;-73
2023/03/06 11:28:47;;;;;;;14.67;9.50;;;;;;;12.11;43.66;96478.72;5026442;28;20285;-75
2023/03/06 11:31:19;;;;;;;14.57;9.07;;;;;;;12.20;43.66;96481.59;5025978;28;20286;-77
2023/03/06 11:33:53;;;;;;;15.57;8.93;;;;;;;12.40;43.91;96477.78;5027516;28;20199;-73
2023/03/06 11:36:35;;;;;;;16.43;8.60;;;;;;;12.57;43.67;96458.56;5009215;28;20250;-75
2023/03/06 11:39:10;;;;;;;15.63;8.93;;;;;;;12.83;43.61;96476.75;5025684;28;20223;-75
2023/03/06 11:41:58;;;;;;;15.53;10.67;;;;;;;12.83;42.85;96471.56;5025875;28;20192;-75